Other Surface Observations
Issued by NWS Great Falls, MT

Home | Current Version | Previous Version | Text Only | Print | Product List | Glossary On
Versions: 1 2 3 4 5 6 7 8 9 10 11 12 13 14 15 16 17 18 19 20 21 22 23 24 25 26 27 28 29 30 31 32 33 34 35 36 37 38 39 40 41 42 43 44 45 46 47 48 49 50
412
SXUS55 KTFX 212309
OSOTFX

AREA AWOS OBSERVATIONS
NATIONAL WEATHER SERVICE GREAT FALLS MT
0407 PM MST Sat Jan 21 2017

METAR K6S8 212255Z AUTO 25000KT 40SM M01/M08 A2953 RMK A01 T10111077
METAR K6S8 212155Z AUTO 21004KT 40SM 01/M08 A2951 RMK A01 T00111077
METAR K7S0 212255Z AUTO 25000KT 2SM M03/M04 A2967 RMK A01 T10331044
METAR K7S1 212255Z AUTO 10003KT 40SM M04/M11 A2960 RMK A01 T10381105
METAR K97M 212255Z AUTO 24005KT 40SM M01/M04 A2951 RMK A01 T10111044
METAR K9S2 212255Z AUTO 30010KT 7SM M01/M05 A2947 RMK A01 T10111050
METAR KRPX 212155Z AUTO 18004KT 40SM 03/M07 A2943 RMK A01 T00271072
METAR KS01 212255Z AUTO 29003KT 40SM 01/M03 A2958 RMK A01 T00111027
METAR KS34 212255Z AUTO 11000KT 7SM M03/M06 A2964 RMK A01 T10271055
METAR KTHM 212155Z AUTO 07008KT 7SM M02/M03 A2964 RMK A01 T10161027



USA.gov is the U.S. government's official web portal to all federal, state and local government web resources and services.